Time;durP1;ratioP1;P1;durP2;ratioP2;P2;SDS_P1;SDS_P2;PMS_P1;PMS_P2;Temp;Humidity;BMP_temperature;BMP_pressure;BME280_temperature;BME280_humidity;BME280_pressure;Samples;Min_cycle;Max_cycle;Signal;HPM_P1;HPM_P2
2023/10/06 00:09:33;;;;;;;4.30;2.60;;;;;;;12.39;76.15;99629.28;224959;1285;138091;-76
2023/10/06 00:22:50;;;;;;;;;;;;;;;;;;;;;
2023/10/06 00:57:18;;;;;;;;;;;;;;;;;;;;;
2023/10/06 01:04:18;;;;;;;;;;;;;;;;;;;;;
2023/10/06 01:10:51;;;;;;;5.80;3.20;;;;;;;11.85;79.27;99659.54;225839;1281;22539;-76
2023/10/06 01:31:40;;;;;;;;;;;;;;;;;;;;;
2023/10/06 01:45:45;;;;;;;7.20;4.60;;;;;;;12.01;80.08;99689.18;221396;1281;138477;-77
2023/10/06 01:53:07;;;;;;;;;;;;;;;;;;;;;
2023/10/06 02:00:36;;;;;;;;;;;;;;;;;;;;;
2023/10/06 02:06:51;;;;;;;;;;;;;;;;;;;;;
2023/10/06 02:13:52;;;;;;;8.90;5.20;;;;;;;11.69;80.59;99699.38;224859;1288;138975;-77
2023/10/06 02:28:00;;;;;;;;;;;;;;;;;;;;;
2023/10/06 02:34:44;;;;;;;9.60;5.40;;;;;;;11.66;81.07;99702.98;225797;1281;22593;-77
2023/10/06 02:41:38;;;;;;;;;;;;;;;;;;;;;
2023/10/06 02:47:57;;;;;;;;;;;;;;;;;;;;;
2023/10/06 02:54:32;;;;;;;;;;;;;;;;;;;;;
2023/10/06 03:07:20;;;;;;;9.80;6.50;;;;;;;11.12;82.01;99720.52;225507;1281;138603;-76
2023/10/06 03:13:58;;;;;;;;;;;;;;;;;;;;;
2023/10/06 03:27:24;;;;;;;7.10;5.40;;;;;;;10.65;82.52;99722.98;225615;1281;138296;-78
2023/10/06 03:41:33;;;;;;;10.60;6.70;;;;;;;10.57;83.28;99725.20;225663;1281;138821;-77
2023/10/06 03:55:00;;;;;;;;;;;;;;;;;;;;;
2023/10/06 04:01:27;;;;;;;;;;;;;;;;;;;;;
2023/10/06 04:08:22;;;;;;;;;;;;;;;;;;;;;
2023/10/06 04:15:10;;;;;;;12.40;10.60;;;;;;;10.94;83.77;99730.17;225720;1281;138584;-78
2023/10/06 04:29:44;;;;;;;;;;;;;;;;;;;;;
2023/10/06 04:43:30;;;;;;;;;;;;;;;;;;;;;
2023/10/06 04:49:57;;;;;;;;;;;;;;;;;;;;;
2023/10/06 04:56:32;;;;;;;;;;;;;;;;;;;;;
2023/10/06 05:09:25;;;;;;;11.10;7.40;;;;;;;11.10;83.70;99750.15;225511;1281;138357;-77
2023/10/06 05:16:01;;;;;;;10.50;7.60;;;;;;;11.10;83.87;99760.20;225756;1259;138441;-77
2023/10/06 05:23:05;;;;;;;10.10;7.40;;;;;;;11.03;83.74;99761.11;225820;1270;22546;-77
2023/10/06 05:29:51;;;;;;;;;;;;;;;;;;;;;
2023/10/06 05:36:24;;;;;;;;;;;;;;;;;;;;;
2023/10/06 05:42:53;;;;;;;;;;;;;;;;;;;;;
2023/10/06 05:50:08;;;;;;;9.70;7.30;;;;;;;10.87;84.16;99773.61;225515;1281;139312;-80
2023/10/06 05:56:02;;;;;;;7.80;6.60;;;;;;;10.89;84.16;99781.33;225322;1281;138506;-81
2023/10/06 06:03:16;;;;;;;10.50;7.50;;;;;;;10.96;84.32;99787.86;224937;1281;138272;-78
2023/10/06 06:09:59;;;;;;;11.60;8.00;;;;;;;11.08;84.39;99797.58;224942;1275;138624;-78
2023/10/06 06:16:31;;;;;;;;;;;;;;;;;;;;;
2023/10/06 06:23:20;;;;;;;13.20;8.20;;;;;;;11.32;84.34;99805.73;223856;1283;22556;-81
2023/10/06 06:29:38;;;;;;;;;;;;;;;;;;;;;
2023/10/06 06:36:04;;;;;;;13.30;8.10;;;;;;;11.68;84.40;99834.94;224366;1284;138605;-82
2023/10/06 06:43:09;;;;;;;11.30;8.80;;;;;;;11.91;84.27;99843.55;224906;1279;138581;-83
2023/10/06 07:04:26;;;;;;;14.40;6.80;;;;;;;12.58;84.00;99859.42;225651;1275;138700;-87
2023/10/06 07:10:46;;;;;;;10.00;5.50;;;;;;;12.81;83.36;99863.14;224896;1275;22590;-76
2023/10/06 07:16:37;;;;;;;;;;;;;;;;;;;;;
2023/10/06 07:23:34;;;;;;;6.30;5.60;;;;;;;13.23;82.62;99866.30;224813;1280;23056;-76
2023/10/06 07:30:44;;;;;;;;;;;;;;;;;;;;;
2023/10/06 07:36:57;;;;;;;29.10;8.60;;;;;;;13.76;81.69;99862.54;225275;1275;138588;-74
2023/10/06 07:42:22;;;;;;;6.40;4.70;;;;;;;14.00;81.48;99860.81;224906;1283;138613;-73
2023/10/06 07:48:19;;;;;;;9.30;3.70;;;;;;;14.26;80.57;99859.52;225270;1274;138754;-74
2023/10/06 07:53:59;;;;;;;;;;;;;;;;;;;;;
2023/10/06 08:00:05;;;;;;;7.30;3.80;;;;;;;14.71;78.97;99857.88;225409;1275;138764;-72
2023/10/06 08:06:29;;;;;;;;;;;;;;;;;;;;;
2023/10/06 08:11:37;;;;;;;9.60;4.30;;;;;;;14.92;78.41;99849.78;225314;1280;138562;-73
2023/10/06 08:16:45;;;;;;;12.70;4.10;;;;;;;15.02;77.49;99845.16;225305;1283;22544;-75
2023/10/06 08:22:40;;;;;;;7.00;3.10;;;;;;;15.12;77.37;99849.38;225262;1280;138410;-72
2023/10/06 08:28:43;;;;;;;4.10;2.90;;;;;;;15.27;77.25;99851.33;225256;1275;138630;-75
2023/10/06 08:34:29;;;;;;;8.30;3.80;;;;;;;15.54;77.03;99854.43;225469;1281;138248;-73
2023/10/06 08:40:35;;;;;;;;;;;;;;;;;;;;;
2023/10/06 08:46:26;;;;;;;6.50;3.40;;;;;;;16.12;75.87;99850.48;225459;1278;138537;-75
2023/10/06 08:52:07;;;;;;;;;;;;;;;;;;;;;
2023/10/06 09:03:51;;;;;;;10.10;3.80;;;;;;;16.50;73.08;99842.59;224498;1286;138302;-76
2023/10/06 09:09:49;;;;;;;;;;;;;;;;;;;;;
2023/10/06 09:15:43;;;;;;;45.50;6.20;;;;;;;16.31;72.25;99846.67;223978;1286;138679;-78
2023/10/06 09:21:19;;;;;;;6.20;2.90;;;;;;;16.35;72.85;99835.77;224334;1286;138469;-79
2023/10/06 09:26:33;;;;;;;4.90;2.50;;;;;;;16.28;72.15;99832.64;224919;1272;138520;-78
2023/10/06 09:32:08;;;;;;;5.20;2.30;;;;;;;16.19;72.07;99829.96;225050;1279;138490;-78
2023/10/06 09:38:14;;;;;;;5.70;2.70;;;;;;;16.10;72.17;99825.61;224973;1282;138373;-78
2023/10/06 09:44:17;;;;;;;5.20;2.50;;;;;;;16.04;72.43;99826.02;225181;1280;138454;-78
2023/10/06 09:49:41;;;;;;;4.60;2.70;;;;;;;16.25;72.06;99817.02;224511;1282;138483;-80
2023/10/06 09:56:11;;;;;;;;;;;;;;;;;;;;;
2023/10/06 10:02:20;;;;;;;5.30;2.90;;;;;;;17.04;70.99;99812.71;224917;1283;138403;-80
2023/10/06 10:07:41;;;;;;;2.70;2.30;;;;;;;17.00;70.66;99807.06;225051;1283;139314;-81
2023/10/06 10:14:02;;;;;;;;;;;;;;;;;;;;;
2023/10/06 10:20:07;;;;;;;;;;;;;;;;;;;;;
2023/10/06 10:26:22;;;;;;;4.90;2.80;;;;;;;16.97;70.13;99777.15;224262;1287;137889;-80
2023/10/06 10:33:08;;;;;;;;;;;;;;;;;;;;;
2023/10/06 10:38:31;;;;;;;4.80;2.50;;;;;;;17.30;69.74;99749.70;225213;1281;138406;-80
2023/10/06 10:50:02;;;;;;;3.80;2.50;;;;;;;17.51;68.98;99740.11;224337;1286;137840;-82
2023/10/06 10:55:35;;;;;;;4.10;2.30;;;;;;;17.69;68.11;99731.88;224170;1291;137744;-75
2023/10/06 11:01:43;;;;;;;;;;;;;;;;;;;;;
2023/10/06 11:07:04;;;;;;;3.80;1.80;;;;;;;18.18;67.17;99696.58;224860;1284;137935;-77
2023/10/06 11:12:31;;;;;;;3.90;1.60;;;;;;;18.46;66.51;99691.65;224448;1289;137726;-77
2023/10/06 11:18:09;;;;;;;;;;;;;;;;;;;;;
2023/10/06 11:23:49;;;;;;;3.20;1.60;;;;;;;18.76;65.28;99681.83;223883;1293;137893;-77
2023/10/06 11:29:08;;;;;;;2.70;1.80;;;;;;;19.05;65.24;99681.66;224120;1293;22575;-77
2023/10/06 11:34:30;;;;;;;2.90;1.60;;;;;;;19.18;64.05;99690.46;224370;1287;22549;-77
2023/10/06 11:45:27;;;;;;;13.60;7.20;;;;;;;19.22;63.64;99690.55;225285;1267;137960;-78
2023/10/06 11:50:34;;;;;;;3.80;2.40;;;;;;;19.31;64.07;99693.38;225226;1281;138169;-78
2023/10/06 11:55:37;;;;;;;3.90;2.90;;;;;;;19.44;64.02;99685.45;225190;1278;137429;-77
2023/10/06 12:00:43;;;;;;;3.40;1.60;;;;;;;19.47;63.86;99680.19;225126;1280;137901;-76
2023/10/06 12:06:11;;;;;;;2.40;1.40;;;;;;;19.43;63.33;99671.55;225194;1265;137879;-78
2023/10/06 12:11:42;;;;;;;;;;;;;;;;;;;;;
2023/10/06 12:17:14;;;;;;;3.30;1.70;;;;;;;19.25;63.50;99672.69;225221;1267;22549;-78
2023/10/06 12:22:27;;;;;;;1.80;1.30;;;;;;;19.23;63.37;99673.39;225164;1278;22594;-77
2023/10/06 12:27:43;;;;;;;4.60;1.70;;;;;;;19.25;63.34;99649.19;225177;1283;137561;-78
2023/10/06 12:32:59;;;;;;;8.50;2.20;;;;;;;19.17;62.91;99633.85;224996;1283;137976;-77
2023/10/06 12:38:06;;;;;;;4.00;1.80;;;;;;;19.06;62.77;99625.92;225164;1281;137845;-76
2023/10/06 12:43:34;;;;;;;4.60;2.20;;;;;;;19.06;63.11;99607.54;225328;1283;137823;-75
2023/10/06 12:48:41;;;;;;;2.70;1.70;;;;;;;19.03;63.13;99597.55;224841;1287;137803;-77
2023/10/06 12:54:10;;;;;;;4.20;2.10;;;;;;;19.01;63.25;99595.39;224814;1277;138560;-78
2023/10/06 12:59:21;;;;;;;4.40;2.10;;;;;;;18.97;63.59;99585.59;224901;1287;22621;-75
2023/10/06 13:04:30;;;;;;;8.20;5.20;;;;;;;19.05;64.06;99590.16;224870;1286;137268;-75
2023/10/06 13:10:02;;;;;;;6.40;2.90;;;;;;;18.94;63.33;99589.17;224796;1270;138093;-76
2023/10/06 13:15:19;;;;;;;4.40;2.30;;;;;;;18.84;63.60;99582.52;224901;1285;137569;-78
2023/10/06 13:20:52;;;;;;;;;;;;;;;;;;;;;
2023/10/06 13:26:02;;;;;;;5.00;2.90;;;;;;;18.91;63.86;99577.16;225198;1281;137755;-77
2023/10/06 13:32:10;;;;;;;;;;;;;;;;;;;;;
2023/10/06 13:37:50;;;;;;;4.30;2.40;;;;;;;18.78;63.67;99567.42;225140;1282;138263;-76
2023/10/06 13:42:57;;;;;;;5.10;3.60;;;;;;;18.69;63.64;99569.15;222752;1283;3184403;-77
2023/10/06 13:48:26;;;;;;;;;;;;;;;18.61;63.86;99551.89;225290;1282;137932;-75
2023/10/06 13:53:46;;;;;;;4.90;2.70;;;;;;;18.61;63.99;99540.56;225292;1283;124297;-77
2023/10/06 13:59:14;;;;;;;5.00;2.80;;;;;;;18.59;64.07;99542.93;225249;1281;22574;-77
2023/10/06 14:04:20;;;;;;;6.30;3.30;;;;;;;18.55;63.91;99536.56;224841;1281;137579;-74
2023/10/06 14:09:26;;;;;;;6.30;3.10;;;;;;;18.40;63.66;99518.95;224711;1283;137525;-74
2023/10/06 14:19:50;;;;;;;6.60;3.00;;;;;;;18.09;63.94;99513.97;224778;1283;137888;-75
2023/10/06 14:24:53;;;;;;;7.10;2.60;;;;;;;17.93;63.98;99506.61;225026;1281;137880;-75
2023/10/06 14:29:56;;;;;;;4.10;2.80;;;;;;;17.78;64.33;99504.50;225042;1283;137793;-74
2023/10/06 14:34:58;;;;;;;5.90;2.90;;;;;;;17.66;64.91;99507.20;225342;1283;25236;-75
2023/10/06 14:45:59;;;;;;;6.10;2.60;;;;;;;17.38;65.47;99499.99;225245;1283;137918;-75
2023/10/06 14:51:03;;;;;;;4.20;2.70;;;;;;;17.27;65.81;99497.71;225251;1283;137969;-74
2023/10/06 14:56:20;;;;;;;3.50;2.10;;;;;;;17.18;66.05;99495.22;225294;1283;138508;-75
2023/10/06 15:01:27;;;;;;;4.00;2.10;;;;;;;17.10;66.29;99490.96;225092;1283;138616;-75
2023/10/06 15:06:34;;;;;;;;;;;;;;;17.04;66.71;99478.09;225278;1282;138548;-74
2023/10/06 15:11:57;;;;;;;6.10;2.60;;;;;;;16.96;66.96;99460.02;225258;1282;125274;-76
2023/10/06 15:17:03;;;;;;;5.60;2.90;;;;;;;16.89;67.43;99459.04;225319;1282;22546;-75
2023/10/06 15:22:20;;;;;;;4.50;3.30;;;;;;;16.81;67.53;99462.34;225299;1283;138066;-75
2023/10/06 15:27:28;;;;;;;5.30;3.10;;;;;;;16.72;67.76;99448.47;225247;1283;138419;-75
2023/10/06 15:33:01;;;;;;;4.60;2.40;;;;;;;16.64;67.76;99436.45;225180;1283;138390;-76
2023/10/06 15:38:10;;;;;;;6.10;3.00;;;;;;;16.52;67.95;99421.62;225189;1283;138635;-75
2023/10/06 15:43:13;;;;;;;6.30;2.90;;;;;;;16.39;67.97;99414.81;225146;1283;138490;-75
2023/10/06 15:48:33;;;;;;;4.50;3.20;;;;;;;16.22;68.26;99411.09;225170;1283;138467;-75
2023/10/06 15:54:43;;;;;;;7.90;5.10;;;;;;;16.01;68.63;99416.73;225156;1283;138392;-75
2023/10/06 16:00:00;;;;;;;6.20;3.00;;;;;;;15.82;68.84;99411.02;225248;1283;138588;-75
2023/10/06 16:05:14;;;;;;;3.40;2.70;;;;;;;15.64;69.38;99412.21;225440;1280;24278;-75
2023/10/06 16:10:24;;;;;;;3.40;2.90;;;;;;;15.48;69.69;99417.88;225246;1283;138259;-76
2023/10/06 16:16:34;;;;;;;8.90;4.00;;;;;;;15.32;70.01;99406.50;225298;1281;138267;-74
2023/10/06 16:21:37;;;;;;;4.70;3.20;;;;;;;15.16;70.37;99385.02;225244;1283;138258;-74
2023/10/06 16:27:15;;;;;;;4.70;3.20;;;;;;;15.07;70.88;99372.19;225284;1283;138764;-74
2023/10/06 16:32:28;;;;;;;5.20;3.20;;;;;;;15.02;70.84;99376.23;225271;1265;138421;-74
2023/10/06 16:37:34;;;;;;;5.30;3.40;;;;;;;14.99;70.84;99385.32;225303;1283;138459;-74
2023/10/06 16:43:20;;;;;;;;;;;;;;;;;;;;;
2023/10/06 16:48:35;;;;;;;7.10;3.20;;;;;;;14.89;71.10;99371.70;225268;1283;138427;-74
2023/10/06 16:54:11;;;;;;;;;;;;;;;;;;;;;
2023/10/06 17:00:09;;;;;;;;;;;;;;;;;;;;;
2023/10/06 17:05:13;;;;;;;7.50;4.80;;;;;;;14.57;71.59;99351.72;225394;1284;22767;-75
2023/10/06 17:10:54;;;;;;;10.20;5.70;;;;;;;14.44;71.81;99350.52;225338;1283;22561;-74
2023/10/06 17:16:38;;;;;;;;;;;;;;;;;;;;;
2023/10/06 17:21:42;;;;;;;11.20;7.10;;;;;;;14.16;72.86;99361.94;225239;1283;138450;-73
2023/10/06 17:26:51;;;;;;;11.60;6.90;;;;;;;14.05;73.04;99357.97;225236;1279;138886;-73
2023/10/06 17:32:07;;;;;;;12.80;8.10;;;;;;;13.95;73.42;99353.98;225143;1283;138550;-74
2023/10/06 17:38:11;;;;;;;14.20;7.80;;;;;;;13.87;73.56;99359.08;225193;1282;138668;-74
2023/10/06 17:43:32;;;;;;;12.00;8.00;;;;;;;13.80;73.98;99355.80;225171;1283;138693;-73
2023/10/06 17:49:38;;;;;;;11.90;7.80;;;;;;;13.74;74.33;99342.90;224831;1287;138871;-74
2023/10/06 17:54:44;;;;;;;12.40;8.20;;;;;;;13.68;74.45;99350.85;224940;1287;138643;-73
2023/10/06 18:00:15;;;;;;;14.50;9.80;;;;;;;13.65;74.45;99349.37;224922;1287;138678;-73
2023/10/06 18:05:44;;;;;;;14.80;8.50;;;;;;;13.62;74.81;99348.13;224914;1287;140013;-74
2023/10/06 18:11:14;;;;;;;;;;;;;;;;;;;;;
2023/10/06 18:16:58;;;;;;;;;;;;;;;;;;;;;
2023/10/06 18:22:32;;;;;;;11.30;8.30;;;;;;;13.59;75.33;99341.64;225262;1283;138372;-73
2023/10/06 18:28:27;;;;;;;12.80;8.60;;;;;;;13.52;75.22;99332.60;225257;1282;138451;-74
2023/10/06 18:34:12;;;;;;;12.70;8.50;;;;;;;13.43;75.21;99326.95;224518;1287;138533;-74
2023/10/06 18:39:22;;;;;;;11.80;8.30;;;;;;;13.38;75.54;99318.45;224805;1287;138783;-74
2023/10/06 18:44:44;;;;;;;12.00;7.40;;;;;;;13.34;75.74;99303.66;224838;1287;138653;-74
2023/10/06 18:50:19;;;;;;;9.50;6.70;;;;;;;13.35;75.92;99292.60;224866;1285;138838;-74
2023/10/06 18:55:34;;;;;;;11.00;6.80;;;;;;;13.38;75.88;99282.10;224852;1267;138491;-74
2023/10/06 19:00:57;;;;;;;10.10;6.30;;;;;;;13.40;75.93;99278.98;224807;1287;138849;-74
2023/10/06 19:06:29;;;;;;;9.90;6.10;;;;;;;13.43;75.68;99271.65;225260;1283;138614;-74
2023/10/06 19:11:31;;;;;;;9.40;6.40;;;;;;;13.42;75.68;99265.76;225368;1283;22655;-75
2023/10/06 19:16:44;;;;;;;8.90;5.70;;;;;;;13.42;75.57;99273.45;225326;1283;22565;-74
2023/10/06 19:22:09;;;;;;;9.70;5.90;;;;;;;13.45;75.68;99269.66;225270;1283;138019;-75
2023/10/06 19:27:18;;;;;;;11.40;5.40;;;;;;;13.46;75.45;99259.15;225239;1283;138358;-75
2023/10/06 19:32:23;;;;;;;5.60;4.00;;;;;;;13.50;75.50;99251.73;225141;1283;138604;-75
2023/10/06 19:37:44;;;;;;;7.80;4.90;;;;;;;13.56;75.50;99249.55;225220;1283;138437;-75
2023/10/06 19:42:54;;;;;;;6.60;4.10;;;;;;;13.63;75.24;99246.62;225280;1281;138428;-75
2023/10/06 19:48:21;;;;;;;;;;;;;;;13.70;75.06;99242.97;225257;1282;138373;-75
2023/10/06 19:53:42;;;;;;;8.50;4.10;;;;;;;13.77;74.93;99246.37;225318;1283;22656;-75
2023/10/06 19:59:10;;;;;;;6.80;3.90;;;;;;;13.82;74.66;99245.19;225353;1281;22560;-77
2023/10/06 20:04:36;;;;;;;6.00;3.30;;;;;;;13.86;74.48;99244.98;225253;1281;138085;-74
2023/10/06 20:09:41;;;;;;;5.40;3.30;;;;;;;13.90;74.28;99242.95;225247;1282;138254;-75
2023/10/06 20:15:07;;;;;;;6.40;3.20;;;;;;;13.90;73.82;99233.55;225147;1282;138587;-75
2023/10/06 20:20:12;;;;;;;5.70;2.90;;;;;;;13.90;74.00;99240.09;225242;1282;137816;-74
2023/10/06 20:25:42;;;;;;;6.20;2.80;;;;;;;13.91;73.86;99237.45;225152;1283;138443;-74
2023/10/06 20:31:04;;;;;;;;;;;;;;;;;;;;;
2023/10/06 20:36:10;;;;;;;5.10;2.80;;;;;;;13.97;73.59;99234.75;225182;1283;138512;-74
2023/10/06 20:41:23;;;;;;;4.10;2.70;;;;;;;14.02;73.61;99230.13;225352;1283;22542;-74
2023/10/06 20:46:50;;;;;;;5.00;2.80;;;;;;;14.06;73.21;99225.08;225362;1283;22558;-74
2023/10/06 20:52:55;;;;;;;5.20;2.60;;;;;;;14.07;73.06;99220.46;225284;1283;138105;-74
2023/10/06 20:58:28;;;;;;;5.00;2.50;;;;;;;14.06;72.75;99213.88;225232;1283;138527;-74
2023/10/06 21:03:40;;;;;;;4.60;2.70;;;;;;;14.03;72.61;99207.69;225274;1260;138866;-74
2023/10/06 21:08:55;;;;;;;3.50;2.20;;;;;;;14.03;72.63;99210.71;225197;1283;138446;-75
2023/10/06 21:14:32;;;;;;;;;;;;;;;;;;;;;
2023/10/06 21:20:20;;;;;;;5.00;2.40;;;;;;;13.99;72.30;99218.50;225246;1283;138531;-74
2023/10/06 21:26:05;;;;;;;5.80;2.90;;;;;;;13.98;72.30;99204.14;225207;1280;138435;-74
2023/10/06 21:31:53;;;;;;;;;;;;;;;;;;;;;
2023/10/06 21:37:16;;;;;;;3.90;2.20;;;;;;;13.95;72.22;99200.10;225183;1273;138434;-74
2023/10/06 21:43:33;;;;;;;;;;;;;;;;;;;;;
2023/10/06 21:49:30;;;;;;;;;;;;;;;;;;;;;
2023/10/06 21:54:38;;;;;;;6.90;2.40;;;;;;;13.75;71.83;99195.45;225130;1283;138764;-73
2023/10/06 22:00:24;;;;;;;;;;;;;;;13.66;72.02;99194.74;225315;1283;23222;-74
2023/10/06 22:06:24;;;;;;;4.50;2.30;;;;;;;13.56;72.08;99188.53;225063;1285;124881;-76
2023/10/06 22:12:00;;;;;;;4.40;2.50;;;;;;;13.48;72.02;99191.56;225163;1269;22552;-74
2023/10/06 22:17:13;;;;;;;5.40;2.50;;;;;;;13.41;72.14;99192.45;225187;1285;23425;-74
2023/10/06 22:22:20;;;;;;;5.20;2.70;;;;;;;13.35;72.03;99181.45;224972;1270;138175;-74
2023/10/06 22:28:07;;;;;;;5.10;2.40;;;;;;;13.29;72.18;99166.52;225045;1283;138283;-74
2023/10/06 22:33:31;;;;;;;4.80;2.60;;;;;;;13.24;72.10;99159.73;225017;1283;139324;-73
2023/10/06 22:39:08;;;;;;;4.20;2.50;;;;;;;13.20;72.20;99148.58;225030;1285;137886;-73
2023/10/06 22:44:22;;;;;;;;;;;;;;;13.15;72.28;99155.89;225181;1283;138421;-73
2023/10/06 22:49:54;;;;;;;5.70;2.60;;;;;;;13.13;72.09;99155.28;225290;1282;124905;-73
2023/10/06 22:55:24;;;;;;;;;;;;;;;;;;;;;
2023/10/06 23:01:20;;;;;;;6.00;2.80;;;;;;;13.10;72.13;99142.60;225305;1281;138429;-73
2023/10/06 23:07:09;;;;;;;4.60;2.40;;;;;;;13.10;72.10;99138.39;225296;1283;138458;-74
2023/10/06 23:13:25;;;;;;;4.10;2.30;;;;;;;13.11;72.06;99136.98;225168;1283;138373;-73
2023/10/06 23:19:25;;;;;;;;;;;;;;;;;;;;;
2023/10/06 23:25:55;;;;;;;6.80;2.30;;;;;;;13.11;71.88;99122.09;225037;1285;138492;-73
2023/10/06 23:32:46;;;;;;;4.20;2.40;;;;;;;13.08;71.88;99118.59;225013;1285;138499;-73
2023/10/06 23:38:25;;;;;;;;;;;;;;;;;;;;;
2023/10/06 23:44:33;;;;;;;;;;;;;;;;;;;;;
2023/10/06 23:56:47;;;;;;;6.60;2.80;;;;;;;12.86;72.03;99089.06;225246;1283;138540;-73
